Airfield :
LOGIN :

Register | Disclaimer

   EN    FR    IT 

 










Legend :    VFR   Marginal VFR   IFR   Intensive IFR   Very Intensive IFR
Visi :
Ceiling :
>= 8 km
>= 3000ft
5 to 8 km
1000 to 3000 ft
1500m to 5 km
500 to 1000 ft
800 to 1500m
200 to 500 ft
< 800m
< 200 ft
Symbols :   Thunderstorms  Fog  Heavy snow  Heavy precipitations  Wind > 20 kt
SIGMETs :     Misc.  Thunderstorms  Icing  Turbulence  Mountain Waves  Volcanic Ashes







- Airport Elevation : 26 ft
- IATA code : BIA
- Download approach charts


LFKB - Bastia

CURRENT METAR :
  • 222330Z AUTO VRB03KT CAVOK 23/16 Q1019 NOSIG

EXPIRED METARs :
  • 222300Z AUTO 16004KT 120V190 CAVOK 23/16 Q1019 NOSIG
  • 222230Z AUTO 20003KT CAVOK 22/16 Q1019 NOSIG
  • 222200Z 26001KT CAVOK 23/17 Q1018 NOSIG
  • 222130Z 00000KT CAVOK 23/17 Q1018 NOSIG
  • 222100Z 23003KT CAVOK 23/17 Q1018 NOSIG

TAF TAF LFKB
Valid from the 22 at 21:00 until the 23 at 21:00 UTC


222000Z 2221/2321 24003KT CAVOK
BECMG 2308/2310 13010KT
BECMG 2318/2320 24003KT TX30/2312Z TN20/2303Z
ATIS : +33 4 95 59 19 40
No reported NOTAMs for that airfield.



MET'MAP, your aeronautical weather chart ! - Copyright ORBIFLY December 2007 - Disclaimer

ORBIFLY MET'MAP TEAM :

Programming & Development : Alexandra Zaïnal
Concept & Development : Baudouin d'Aumeries
Co-Development & Prog : Marc-Olivier Méhu
Technical & hardware support : Manuel Goepfert

Contact : metmap@orbifly.com




SOURCES & CREDITS :

   NOAA